sensor_id;sensor_type;location;lat;lon;timestamp;pressure;altitude;pressure_sealevel;temperature;humidity
55685;BME280;41883;49.544;8.646;2022-08-02T00:00:53;100673.50;;;19.76;67.21
55685;BME280;41883;49.544;8.646;2022-08-02T00:03:22;100668.31;;;19.75;66.79
55685;BME280;41883;49.544;8.646;2022-08-02T00:05:48;100667.72;;;19.72;66.60
55685;BME280;41883;49.544;8.646;2022-08-02T00:08:15;100666.47;;;19.75;66.61
55685;BME280;41883;49.544;8.646;2022-08-02T00:10:42;100664.00;;;19.73;67.56
55685;BME280;41883;49.544;8.646;2022-08-02T00:13:08;100658.22;;;19.70;67.34
55685;BME280;41883;49.544;8.646;2022-08-02T00:15:34;100656.75;;;19.67;67.67
55685;BME280;41883;49.544;8.646;2022-08-02T00:18:00;100670.59;;;19.64;67.15
55685;BME280;41883;49.544;8.646;2022-08-02T00:20:29;100671.41;;;19.58;67.51
55685;BME280;41883;49.544;8.646;2022-08-02T00:22:55;100668.53;;;19.53;67.75
55685;BME280;41883;49.544;8.646;2022-08-02T00:25:21;100665.84;;;19.46;67.83
55685;BME280;41883;49.544;8.646;2022-08-02T00:27:48;100661.72;;;19.44;67.69
55685;BME280;41883;49.544;8.646;2022-08-02T00:30:14;100668.50;;;19.40;68.06
55685;BME280;41883;49.544;8.646;2022-08-02T00:32:43;100657.38;;;19.36;67.82
55685;BME280;41883;49.544;8.646;2022-08-02T00:35:09;100653.66;;;19.30;67.77
55685;BME280;41883;49.544;8.646;2022-08-02T00:37:39;100652.03;;;19.29;68.08
55685;BME280;41883;49.544;8.646;2022-08-02T00:40:06;100654.91;;;19.35;68.28
55685;BME280;41883;49.544;8.646;2022-08-02T00:42:32;100651.81;;;19.38;69.22
55685;BME280;41883;49.544;8.646;2022-08-02T00:44:58;100652.66;;;19.38;68.38
55685;BME280;41883;49.544;8.646;2022-08-02T00:47:24;100652.44;;;19.33;68.89
55685;BME280;41883;49.544;8.646;2022-08-02T00:49:51;100654.09;;;19.27;69.06
55685;BME280;41883;49.544;8.646;2022-08-02T00:52:17;100660.66;;;19.18;69.47
55685;BME280;41883;49.544;8.646;2022-08-02T00:54:43;100664.19;;;19.12;69.12
55685;BME280;41883;49.544;8.646;2022-08-02T00:57:09;100668.50;;;19.06;69.05
55685;BME280;41883;49.544;8.646;2022-08-02T00:59:36;100665.81;;;19.00;69.33
55685;BME280;41883;49.544;8.646;2022-08-02T01:02:02;100672.81;;;18.94;69.66
55685;BME280;41883;49.544;8.646;2022-08-02T01:04:28;100683.50;;;18.87;70.09
55685;BME280;41883;49.544;8.646;2022-08-02T01:06:54;100688.25;;;18.85;70.46
55685;BME280;41883;49.544;8.646;2022-08-02T01:09:21;100694.00;;;18.82;70.79
55685;BME280;41883;49.544;8.646;2022-08-02T01:11:47;100688.66;;;18.82;70.52
55685;BME280;41883;49.544;8.646;2022-08-02T01:14:15;100690.31;;;18.83;70.79
55685;BME280;41883;49.544;8.646;2022-08-02T01:16:47;100696.06;;;18.87;70.55
55685;BME280;41883;49.544;8.646;2022-08-02T01:19:32;100698.16;;;18.92;71.11
55685;BME280;41883;49.544;8.646;2022-08-02T01:22:30;100701.03;;;18.97;70.71
55685;BME280;41883;49.544;8.646;2022-08-02T01:30:47;100701.50;;;19.20;70.18
55685;BME280;41883;49.544;8.646;2022-08-02T01:33:17;100708.53;;;19.21;70.31
55685;BME280;41883;49.544;8.646;2022-08-02T01:35:46;100710.38;;;19.21;70.41
55685;BME280;41883;49.544;8.646;2022-08-02T01:38:37;100703.19;;;19.21;70.28
55685;BME280;41883;49.544;8.646;2022-08-02T01:41:04;100704.19;;;19.20;70.27
55685;BME280;41883;49.544;8.646;2022-08-02T01:43:33;100710.19;;;19.22;70.48
55685;BME280;41883;49.544;8.646;2022-08-02T01:46:01;100702.75;;;19.24;70.54
55685;BME280;41883;49.544;8.646;2022-08-02T01:48:30;100702.75;;;19.24;70.42
55685;BME280;41883;49.544;8.646;2022-08-02T01:51:00;100697.59;;;19.23;70.54
55685;BME280;41883;49.544;8.646;2022-08-02T01:53:28;100695.53;;;19.25;69.88
55685;BME280;41883;49.544;8.646;2022-08-02T01:55:58;100698.41;;;19.23;69.67
55685;BME280;41883;49.544;8.646;2022-08-02T01:58:30;100695.94;;;19.22;69.77
55685;BME280;41883;49.544;8.646;2022-08-02T02:01:01;100695.75;;;19.17;69.69
55685;BME280;41883;49.544;8.646;2022-08-02T02:03:28;100687.50;;;19.12;70.54
55685;BME280;41883;49.544;8.646;2022-08-02T02:05:57;100681.06;;;19.06;70.01
55685;BME280;41883;49.544;8.646;2022-08-02T02:08:37;100682.09;;;18.98;70.44
55685;BME280;41883;49.544;8.646;2022-08-02T02:11:05;100690.31;;;18.90;70.58
55685;BME280;41883;49.544;8.646;2022-08-02T02:13:36;100688.03;;;18.80;71.21
55685;BME280;41883;49.544;8.646;2022-08-02T02:16:06;100689.22;;;18.71;71.16
55685;BME280;41883;49.544;8.646;2022-08-02T02:18:38;100691.47;;;18.67;71.48
55685;BME280;41883;49.544;8.646;2022-08-02T02:21:06;100691.88;;;18.64;71.63
55685;BME280;41883;49.544;8.646;2022-08-02T02:23:32;100695.56;;;18.63;71.38
55685;BME280;41883;49.544;8.646;2022-08-02T02:25:59;100692.06;;;18.63;71.30
55685;BME280;41883;49.544;8.646;2022-08-02T02:28:29;100683.22;;;18.62;71.73
55685;BME280;41883;49.544;8.646;2022-08-02T02:31:22;100688.56;;;18.62;71.73
55685;BME280;41883;49.544;8.646;2022-08-02T02:33:49;100682.75;;;18.59;72.26
55685;BME280;41883;49.544;8.646;2022-08-02T02:36:17;100679.88;;;18.54;72.63
55685;BME280;41883;49.544;8.646;2022-08-02T02:38:44;100685.81;;;18.49;72.47
55685;BME280;41883;49.544;8.646;2022-08-02T02:41:13;100683.13;;;18.42;72.90
55685;BME280;41883;49.544;8.646;2022-08-02T02:43:41;100681.88;;;18.38;73.11
55685;BME280;41883;49.544;8.646;2022-08-02T02:46:11;100668.28;;;18.33;74.13
55685;BME280;41883;49.544;8.646;2022-08-02T02:48:38;100675.22;;;18.28;74.54
55685;BME280;41883;49.544;8.646;2022-08-02T02:51:07;100681.41;;;18.28;74.86
55685;BME280;41883;49.544;8.646;2022-08-02T02:53:34;100669.28;;;18.32;73.88
55685;BME280;41883;49.544;8.646;2022-08-02T02:56:01;100684.53;;;18.32;73.99
55685;BME280;41883;49.544;8.646;2022-08-02T02:58:27;100682.88;;;18.31;73.63
55685;BME280;41883;49.544;8.646;2022-08-02T03:00:54;100690.28;;;18.29;74.22
55685;BME280;41883;49.544;8.646;2022-08-02T03:03:40;100690.66;;;18.25;73.86
55685;BME280;41883;49.544;8.646;2022-08-02T03:06:08;100693.34;;;18.25;74.43
55685;BME280;41883;49.544;8.646;2022-08-02T03:08:35;100692.56;;;18.32;74.67
55685;BME280;41883;49.544;8.646;2022-08-02T03:11:06;100701.03;;;18.35;73.97
55685;BME280;41883;49.544;8.646;2022-08-02T03:13:32;100704.13;;;18.39;73.96
55685;BME280;41883;49.544;8.646;2022-08-02T03:15:59;100709.91;;;18.42;73.50
55685;BME280;41883;49.544;8.646;2022-08-02T03:18:34;100704.97;;;18.46;73.50
55685;BME280;41883;49.544;8.646;2022-08-02T03:21:06;100707.06;;;18.51;73.66
55685;BME280;41883;49.544;8.646;2022-08-02T03:23:33;100717.59;;;18.52;73.78
55685;BME280;41883;49.544;8.646;2022-08-02T03:26:00;100710.56;;;18.51;73.93
55685;BME280;41883;49.544;8.646;2022-08-02T03:28:27;100719.41;;;18.52;73.50
55685;BME280;41883;49.544;8.646;2022-08-02T03:30:53;100723.31;;;18.49;73.75
55685;BME280;41883;49.544;8.646;2022-08-02T03:33:19;100714.88;;;18.45;73.90
55685;BME280;41883;49.544;8.646;2022-08-02T03:35:47;100720.81;;;18.41;74.01
55685;BME280;41883;49.544;8.646;2022-08-02T03:38:16;100722.03;;;18.38;74.18
55685;BME280;41883;49.544;8.646;2022-08-02T03:40:44;100722.63;;;18.34;74.25
55685;BME280;41883;49.544;8.646;2022-08-02T03:43:11;100724.88;;;18.30;73.93
55685;BME280;41883;49.544;8.646;2022-08-02T03:45:46;100720.94;;;18.26;74.30
55685;BME280;41883;49.544;8.646;2022-08-02T03:48:14;100727.72;;;18.22;74.53
55685;BME280;41883;49.544;8.646;2022-08-02T03:50:41;100715.34;;;18.21;74.82
55685;BME280;41883;49.544;8.646;2022-08-02T03:53:08;100714.97;;;18.24;74.62
55685;BME280;41883;49.544;8.646;2022-08-02T03:55:36;100709.41;;;18.25;74.15
55685;BME280;41883;49.544;8.646;2022-08-02T03:58:03;100706.13;;;18.23;74.36
55685;BME280;41883;49.544;8.646;2022-08-02T04:00:30;100708.78;;;18.23;74.52
55685;BME280;41883;49.544;8.646;2022-08-02T04:02:56;100707.13;;;18.22;74.43
55685;BME280;41883;49.544;8.646;2022-08-02T04:05:23;100705.84;;;18.18;75.34
55685;BME280;41883;49.544;8.646;2022-08-02T04:07:49;100716.78;;;18.17;75.03
55685;BME280;41883;49.544;8.646;2022-08-02T04:10:16;100719.63;;;18.15;75.00
55685;BME280;41883;49.544;8.646;2022-08-02T04:12:42;100708.75;;;18.17;75.18
55685;BME280;41883;49.544;8.646;2022-08-02T04:15:11;100706.25;;;18.15;75.22
55685;BME280;41883;49.544;8.646;2022-08-02T04:17:52;100713.47;;;18.15;75.67
55685;BME280;41883;49.544;8.646;2022-08-02T04:20:26;100714.69;;;18.12;75.49
55685;BME280;41883;49.544;8.646;2022-08-02T04:22:59;100716.53;;;18.12;75.16
55685;BME280;41883;49.544;8.646;2022-08-02T04:25:27;100718.38;;;18.11;75.46
55685;BME280;41883;49.544;8.646;2022-08-02T04:27:56;100714.88;;;18.11;75.93
55685;BME280;41883;49.544;8.646;2022-08-02T04:30:24;100725.78;;;18.09;76.43
55685;BME280;41883;49.544;8.646;2022-08-02T04:32:51;100726.41;;;18.11;76.18
55685;BME280;41883;49.544;8.646;2022-08-02T04:35:17;100726.84;;;18.15;76.17
55685;BME280;41883;49.544;8.646;2022-08-02T04:37:43;100729.13;;;18.18;75.85
55685;BME280;41883;49.544;8.646;2022-08-02T04:40:11;100730.38;;;18.22;75.92
55685;BME280;41883;49.544;8.646;2022-08-02T04:42:37;100729.34;;;18.23;75.90
55685;BME280;41883;49.544;8.646;2022-08-02T04:45:05;100732.66;;;18.25;76.27
55685;BME280;41883;49.544;8.646;2022-08-02T04:47:32;100722.59;;;18.27;76.11
55685;BME280;41883;49.544;8.646;2022-08-02T04:49:59;100726.53;;;18.31;76.65
55685;BME280;41883;49.544;8.646;2022-08-02T04:52:25;100727.81;;;18.35;76.42
55685;BME280;41883;49.544;8.646;2022-08-02T04:54:52;100726.59;;;18.44;75.83
55685;BME280;41883;49.544;8.646;2022-08-02T04:57:19;100728.66;;;18.49;76.20
55685;BME280;41883;49.544;8.646;2022-08-02T05:00:05;100726.06;;;18.62;75.68
55685;BME280;41883;49.544;8.646;2022-08-02T05:02:32;100729.78;;;18.68;75.55
55685;BME280;41883;49.544;8.646;2022-08-02T05:05:01;100733.16;;;18.77;75.10
55685;BME280;41883;49.544;8.646;2022-08-02T05:07:27;100737.09;;;18.81;75.06
55685;BME280;41883;49.544;8.646;2022-08-02T05:09:53;100739.56;;;18.82;75.02
55685;BME280;41883;49.544;8.646;2022-08-02T05:12:19;100737.31;;;18.86;74.94
55685;BME280;41883;49.544;8.646;2022-08-02T05:14:47;100740.41;;;18.89;74.95
55685;BME280;41883;49.544;8.646;2022-08-02T05:17:16;100747.00;;;18.94;74.92
55685;BME280;41883;49.544;8.646;2022-08-02T05:19:45;100751.38;;;19.01;74.65
55685;BME280;41883;49.544;8.646;2022-08-02T05:22:11;100749.53;;;19.08;74.34
55685;BME280;41883;49.544;8.646;2022-08-02T05:24:37;100750.19;;;19.17;74.31
55685;BME280;41883;49.544;8.646;2022-08-02T05:27:03;100757.22;;;19.31;74.12
55685;BME280;41883;49.544;8.646;2022-08-02T05:29:30;100755.78;;;19.42;73.74
55685;BME280;41883;49.544;8.646;2022-08-02T05:31:56;100751.25;;;19.56;73.60
55685;BME280;41883;49.544;8.646;2022-08-02T05:34:22;100752.94;;;19.70;73.28
55685;BME280;41883;49.544;8.646;2022-08-02T05:36:48;100758.53;;;19.89;72.54
55685;BME280;41883;49.544;8.646;2022-08-02T05:39:14;100753.16;;;20.02;72.46
55685;BME280;41883;49.544;8.646;2022-08-02T05:41:41;100752.69;;;20.19;71.92
55685;BME280;41883;49.544;8.646;2022-08-02T05:44:06;100751.78;;;20.45;71.65
55685;BME280;41883;49.544;8.646;2022-08-02T05:46:32;100752.63;;;20.58;70.98
55685;BME280;41883;49.544;8.646;2022-08-02T05:48:58;100741.66;;;20.67;70.57
55685;BME280;41883;49.544;8.646;2022-08-02T05:51:36;100746.56;;;20.76;70.06
55685;BME280;41883;49.544;8.646;2022-08-02T05:54:20;100752.88;;;20.95;69.93
55685;BME280;41883;49.544;8.646;2022-08-02T05:59:54;100746.31;;;21.80;67.38
55685;BME280;41883;49.544;8.646;2022-08-02T06:02:33;100752.22;;;22.14;65.96
55685;BME280;41883;49.544;8.646;2022-08-02T06:05:31;100760.72;;;22.36;64.32
55685;BME280;41883;49.544;8.646;2022-08-02T06:07:58;100764.63;;;22.58;64.11
55685;BME280;41883;49.544;8.646;2022-08-02T06:10:26;100765.22;;;22.90;63.66
55685;BME280;41883;49.544;8.646;2022-08-02T06:13:10;100761.28;;;23.23;63.17
55685;BME280;41883;49.544;8.646;2022-08-02T06:15:37;100763.81;;;23.37;62.19
55685;BME280;41883;49.544;8.646;2022-08-02T06:18:05;100772.69;;;23.67;62.08
55685;BME280;41883;49.544;8.646;2022-08-02T06:20:32;100770.38;;;23.94;61.63
55685;BME280;41883;49.544;8.646;2022-08-02T06:23:04;100761.44;;;24.17;60.74
55685;BME280;41883;49.544;8.646;2022-08-02T06:25:31;100759.78;;;24.28;59.78
55685;BME280;41883;49.544;8.646;2022-08-02T06:28:00;100764.19;;;24.82;59.55
55685;BME280;41883;49.544;8.646;2022-08-02T06:30:26;100763.50;;;25.03;59.13
55685;BME280;41883;49.544;8.646;2022-08-02T06:32:53;100760.94;;;25.25;58.46
55685;BME280;41883;49.544;8.646;2022-08-02T06:35:20;100763.03;;;25.69;57.49
55685;BME280;41883;49.544;8.646;2022-08-02T06:40:29;100764.78;;;26.31;55.74
55685;BME280;41883;49.544;8.646;2022-08-02T06:45:51;100759.34;;;26.31;52.98
55685;BME280;41883;49.544;8.646;2022-08-02T06:48:17;100769.97;;;26.32;53.19
55685;BME280;41883;49.544;8.646;2022-08-02T06:50:44;100774.13;;;26.40;52.53
55685;BME280;41883;49.544;8.646;2022-08-02T06:53:11;100781.13;;;26.36;53.49
55685;BME280;41883;49.544;8.646;2022-08-02T06:55:37;100778.41;;;26.36;53.48
55685;BME280;41883;49.544;8.646;2022-08-02T06:58:03;100771.19;;;26.41;53.71
55685;BME280;41883;49.544;8.646;2022-08-02T07:00:30;100774.09;;;26.57;52.04
55685;BME280;41883;49.544;8.646;2022-08-02T07:02:56;100783.06;;;26.40;51.90
55685;BME280;41883;49.544;8.646;2022-08-02T07:05:23;100776.66;;;26.08;52.10
55685;BME280;41883;49.544;8.646;2022-08-02T07:07:52;100783.47;;;25.93;52.60
55685;BME280;41883;49.544;8.646;2022-08-02T07:10:18;100779.44;;;25.79;51.91
55685;BME280;41883;49.544;8.646;2022-08-02T07:12:45;100781.78;;;25.87;52.34
55685;BME280;41883;49.544;8.646;2022-08-02T07:15:11;100781.59;;;26.11;52.44
55685;BME280;41883;49.544;8.646;2022-08-02T07:17:38;100788.31;;;26.25;52.29
55685;BME280;41883;49.544;8.646;2022-08-02T07:20:05;100786.59;;;26.41;51.17
55685;BME280;41883;49.544;8.646;2022-08-02T07:22:32;100785.59;;;26.64;51.44
55685;BME280;41883;49.544;8.646;2022-08-02T07:25:03;100783.47;;;26.93;50.53
55685;BME280;41883;49.544;8.646;2022-08-02T07:27:30;100786.41;;;27.14;49.75
55685;BME280;41883;49.544;8.646;2022-08-02T07:29:56;100786.72;;;27.39;49.14
55685;BME280;41883;49.544;8.646;2022-08-02T07:32:26;100781.44;;;27.60;49.09
55685;BME280;41883;49.544;8.646;2022-08-02T07:34:54;100773.34;;;28.02;49.08
55685;BME280;41883;49.544;8.646;2022-08-02T07:37:21;100768.69;;;28.45;48.59
55685;BME280;41883;49.544;8.646;2022-08-02T07:39:48;100769.16;;;28.85;46.96
55685;BME280;41883;49.544;8.646;2022-08-02T07:42:14;100767.34;;;29.16;46.68
55685;BME280;41883;49.544;8.646;2022-08-02T07:44:40;100765.72;;;29.66;45.70
55685;BME280;41883;49.544;8.646;2022-08-02T07:47:06;100776.34;;;29.98;45.65
55685;BME280;41883;49.544;8.646;2022-08-02T07:49:32;100769.13;;;30.48;44.55
55685;BME280;41883;49.544;8.646;2022-08-02T07:51:58;100770.88;;;30.94;42.56
55685;BME280;41883;49.544;8.646;2022-08-02T07:54:24;100777.00;;;31.15;42.06
55685;BME280;41883;49.544;8.646;2022-08-02T07:56:53;100769.03;;;31.58;41.77
55685;BME280;41883;49.544;8.646;2022-08-02T07:59:19;100763.53;;;31.92;39.54
55685;BME280;41883;49.544;8.646;2022-08-02T08:01:46;100768.72;;;31.99;39.36
55685;BME280;41883;49.544;8.646;2022-08-02T08:04:16;100762.00;;;32.34;38.11
55685;BME280;41883;49.544;8.646;2022-08-02T08:06:43;100753.69;;;32.21;37.40
55685;BME280;41883;49.544;8.646;2022-08-02T08:09:11;100764.63;;;32.45;36.69
55685;BME280;41883;49.544;8.646;2022-08-02T08:11:41;100756.16;;;32.41;36.83
55685;BME280;41883;49.544;8.646;2022-08-02T08:14:07;100757.72;;;32.71;36.04
55685;BME280;41883;49.544;8.646;2022-08-02T08:16:33;100748.41;;;32.72;36.46
55685;BME280;41883;49.544;8.646;2022-08-02T08:18:59;100756.50;;;33.02;35.23
55685;BME280;41883;49.544;8.646;2022-08-02T08:21:26;100751.97;;;32.92;34.80
55685;BME280;41883;49.544;8.646;2022-08-02T08:23:52;100748.03;;;33.36;35.07
55685;BME280;41883;49.544;8.646;2022-08-02T08:26:17;100748.44;;;34.09;33.83
55685;BME280;41883;49.544;8.646;2022-08-02T08:28:43;100742.63;;;34.10;32.34
55685;BME280;41883;49.544;8.646;2022-08-02T08:31:09;100750.44;;;34.17;32.52
55685;BME280;41883;49.544;8.646;2022-08-02T08:33:35;100749.66;;;34.30;30.95
55685;BME280;41883;49.544;8.646;2022-08-02T08:36:00;100753.59;;;34.38;30.51
55685;BME280;41883;49.544;8.646;2022-08-02T08:38:26;100748.13;;;34.88;30.94
55685;BME280;41883;49.544;8.646;2022-08-02T08:40:53;100745.66;;;35.45;29.80
55685;BME280;41883;49.544;8.646;2022-08-02T08:43:18;100744.59;;;35.55;29.62
55685;BME280;41883;49.544;8.646;2022-08-02T08:45:45;100751.69;;;35.56;28.13
55685;BME280;41883;49.544;8.646;2022-08-02T08:48:12;100746.09;;;35.92;28.55
55685;BME280;41883;49.544;8.646;2022-08-02T08:50:38;100745.63;;;36.56;27.60
55685;BME280;41883;49.544;8.646;2022-08-02T08:53:08;100743.91;;;37.30;27.04
55685;BME280;41883;49.544;8.646;2022-08-02T08:55:36;100742.09;;;37.99;25.52
55685;BME280;41883;49.544;8.646;2022-08-02T08:58:03;100750.28;;;38.25;25.51
55685;BME280;41883;49.544;8.646;2022-08-02T09:00:30;100749.38;;;38.12;23.68
55685;BME280;41883;49.544;8.646;2022-08-02T09:02:58;100749.88;;;37.97;25.05
55685;BME280;41883;49.544;8.646;2022-08-02T09:05:26;100752.38;;;38.58;24.75
55685;BME280;41883;49.544;8.646;2022-08-02T09:07:52;100754.06;;;38.92;24.01
55685;BME280;41883;49.544;8.646;2022-08-02T09:13:08;100750.63;;;38.44;23.28
55685;BME280;41883;49.544;8.646;2022-08-02T09:15:35;100745.13;;;38.15;23.36
55685;BME280;41883;49.544;8.646;2022-08-02T09:18:05;100745.84;;;37.94;23.21
55685;BME280;41883;49.544;8.646;2022-08-02T09:20:31;100744.84;;;37.99;23.18
55685;BME280;41883;49.544;8.646;2022-08-02T09:23:07;100738.84;;;37.97;23.18
55685;BME280;41883;49.544;8.646;2022-08-02T09:25:34;100740.13;;;38.08;22.22
55685;BME280;41883;49.544;8.646;2022-08-02T09:28:03;100734.41;;;38.43;21.81
55685;BME280;41883;49.544;8.646;2022-08-02T09:30:28;100732.84;;;38.33;21.84
55685;BME280;41883;49.544;8.646;2022-08-02T09:32:54;100722.03;;;38.70;21.96
55685;BME280;41883;49.544;8.646;2022-08-02T09:35:33;100725.84;;;39.20;20.98
55685;BME280;41883;49.544;8.646;2022-08-02T09:38:10;100731.00;;;38.88;21.58
55685;BME280;41883;49.544;8.646;2022-08-02T09:40:37;100731.41;;;39.32;21.62
55685;BME280;41883;49.544;8.646;2022-08-02T09:43:05;100734.31;;;39.94;21.02
55685;BME280;41883;49.544;8.646;2022-08-02T09:45:32;100733.38;;;40.02;20.68
55685;BME280;41883;49.544;8.646;2022-08-02T09:48:05;100728.34;;;40.81;20.26
55685;BME280;41883;49.544;8.646;2022-08-02T09:50:36;100725.91;;;41.36;19.27
55685;BME280;41883;49.544;8.646;2022-08-02T09:53:04;100723.88;;;41.96;19.18
55685;BME280;41883;49.544;8.646;2022-08-02T09:55:33;100731.94;;;42.01;18.79
55685;BME280;41883;49.544;8.646;2022-08-02T09:58:19;100733.81;;;41.97;18.25
55685;BME280;41883;49.544;8.646;2022-08-02T10:00:57;100718.03;;;41.86;18.97
55685;BME280;41883;49.544;8.646;2022-08-02T10:03:24;100719.91;;;42.13;18.04
55685;BME280;41883;49.544;8.646;2022-08-02T10:05:52;100720.53;;;42.97;17.90
55685;BME280;41883;49.544;8.646;2022-08-02T10:08:23;100712.75;;;43.72;16.97
55685;BME280;41883;49.544;8.646;2022-08-02T10:10:50;100713.00;;;44.13;16.75
55685;BME280;41883;49.544;8.646;2022-08-02T10:13:43;100721.06;;;44.48;16.76
55685;BME280;41883;49.544;8.646;2022-08-02T10:16:10;100708.03;;;43.76;16.56
55685;BME280;41883;49.544;8.646;2022-08-02T10:18:37;100710.84;;;42.91;16.65
55685;BME280;41883;49.544;8.646;2022-08-02T10:21:06;100708.38;;;42.66;17.18
55685;BME280;41883;49.544;8.646;2022-08-02T10:23:38;100705.56;;;43.05;17.17
55685;BME280;41883;49.544;8.646;2022-08-02T10:26:06;100709.16;;;43.48;16.85
55685;BME280;41883;49.544;8.646;2022-08-02T10:28:32;100706.75;;;43.96;16.10
55685;BME280;41883;49.544;8.646;2022-08-02T10:31:00;100698.81;;;43.72;16.42
55685;BME280;41883;49.544;8.646;2022-08-02T10:33:29;100701.47;;;43.64;15.85
55685;BME280;41883;49.544;8.646;2022-08-02T10:36:00;100697.75;;;43.80;16.31
55685;BME280;41883;49.544;8.646;2022-08-02T10:38:27;100696.97;;;44.66;16.08
55685;BME280;41883;49.544;8.646;2022-08-02T10:40:54;100700.13;;;45.36;15.40
55685;BME280;41883;49.544;8.646;2022-08-02T10:46:31;100682.56;;;45.84;14.66
55685;BME280;41883;49.544;8.646;2022-08-02T10:52:03;100680.50;;;46.36;14.00
55685;BME280;41883;49.544;8.646;2022-08-02T10:54:35;100675.38;;;46.49;14.56
55685;BME280;41883;49.544;8.646;2022-08-02T10:57:02;100666.31;;;47.09;14.29
55685;BME280;41883;49.544;8.646;2022-08-02T10:59:33;100666.34;;;47.31;12.92
55685;BME280;41883;49.544;8.646;2022-08-02T11:02:05;100666.75;;;47.22;13.32
55685;BME280;41883;49.544;8.646;2022-08-02T11:07:36;100667.34;;;45.74;13.74
55685;BME280;41883;49.544;8.646;2022-08-02T11:10:40;100666.25;;;45.38;13.84
55685;BME280;41883;49.544;8.646;2022-08-02T11:13:17;100664.91;;;45.69;13.96
55685;BME280;41883;49.544;8.646;2022-08-02T11:15:57;100666.63;;;45.88;13.49
55685;BME280;41883;49.544;8.646;2022-08-02T11:21:26;100664.28;;;46.81;12.82
55685;BME280;41883;49.544;8.646;2022-08-02T11:23:53;100662.84;;;46.21;13.07
55685;BME280;41883;49.544;8.646;2022-08-02T11:28:56;100654.94;;;45.68;12.92
55685;BME280;41883;49.544;8.646;2022-08-02T11:31:22;100642.94;;;45.64;13.30
55685;BME280;41883;49.544;8.646;2022-08-02T11:33:49;100645.09;;;45.95;13.32
55685;BME280;41883;49.544;8.646;2022-08-02T11:36:17;100652.22;;;46.59;12.37
55685;BME280;41883;49.544;8.646;2022-08-02T11:38:43;100646.50;;;46.30;12.57
55685;BME280;41883;49.544;8.646;2022-08-02T11:41:21;100633.47;;;45.86;13.12
55685;BME280;41883;49.544;8.646;2022-08-02T11:43:53;100632.25;;;46.71;11.81
55685;BME280;41883;49.544;8.646;2022-08-02T11:46:19;100630.56;;;46.34;12.56
55685;BME280;41883;49.544;8.646;2022-08-02T11:48:45;100634.16;;;46.35;12.69
55685;BME280;41883;49.544;8.646;2022-08-02T11:51:16;100628.94;;;46.33;12.36
55685;BME280;41883;49.544;8.646;2022-08-02T11:53:46;100631.13;;;46.94;12.24
55685;BME280;41883;49.544;8.646;2022-08-02T11:56:14;100633.53;;;47.31;12.07
55685;BME280;41883;49.544;8.646;2022-08-02T11:58:40;100626.34;;;47.27;11.75
55685;BME280;41883;49.544;8.646;2022-08-02T12:01:07;100633.50;;;47.02;12.06
55685;BME280;41883;49.544;8.646;2022-08-02T12:03:37;100634.72;;;47.05;12.18
55685;BME280;41883;49.544;8.646;2022-08-02T12:06:04;100633.56;;;47.56;11.66
55685;BME280;41883;49.544;8.646;2022-08-02T12:08:32;100637.03;;;48.07;11.04
55685;BME280;41883;49.544;8.646;2022-08-02T12:11:00;100635.88;;;47.83;11.18
55685;BME280;41883;49.544;8.646;2022-08-02T12:13:28;100635.09;;;47.79;11.90
55685;BME280;41883;49.544;8.646;2022-08-02T12:16:10;100635.03;;;46.57;12.61
55685;BME280;41883;49.544;8.646;2022-08-02T12:18:54;100628.84;;;45.05;13.23
55685;BME280;41883;49.544;8.646;2022-08-02T12:21:39;100630.78;;;43.46;14.50
55685;BME280;41883;49.544;8.646;2022-08-02T12:24:05;100630.72;;;42.57;15.52
55685;BME280;41883;49.544;8.646;2022-08-02T12:26:43;100622.09;;;40.93;16.35
55685;BME280;41883;49.544;8.646;2022-08-02T12:29:09;100629.66;;;39.75;17.14
55685;BME280;41883;49.544;8.646;2022-08-02T12:31:43;100627.06;;;38.87;17.98
55685;BME280;41883;49.544;8.646;2022-08-02T12:34:29;100621.34;;;38.38;19.04
55685;BME280;41883;49.544;8.646;2022-08-02T12:37:00;100622.81;;;38.35;19.36
55685;BME280;41883;49.544;8.646;2022-08-02T12:39:43;100617.38;;;37.97;19.75
55685;BME280;41883;49.544;8.646;2022-08-02T12:42:13;100614.53;;;37.85;19.64
55685;BME280;41883;49.544;8.646;2022-08-02T12:44:57;100609.38;;;37.83;20.06
55685;BME280;41883;49.544;8.646;2022-08-02T12:47:23;100603.38;;;37.43;20.28
55685;BME280;41883;49.544;8.646;2022-08-02T12:50:16;100600.47;;;36.83;20.50
55685;BME280;41883;49.544;8.646;2022-08-02T12:52:42;100606.47;;;36.76;20.56
55685;BME280;41883;49.544;8.646;2022-08-02T12:55:21;100599.97;;;36.64;20.75
55685;BME280;41883;49.544;8.646;2022-08-02T12:57:52;100598.34;;;36.54;21.32
55685;BME280;41883;49.544;8.646;2022-08-02T13:00:24;100591.41;;;36.30;21.39
55685;BME280;41883;49.544;8.646;2022-08-02T13:02:51;100596.47;;;35.71;21.89
55685;BME280;41883;49.544;8.646;2022-08-02T13:05:20;100593.84;;;35.26;22.31
55685;BME280;41883;49.544;8.646;2022-08-02T13:08:06;100592.41;;;35.28;22.77
55685;BME280;41883;49.544;8.646;2022-08-02T13:10:32;100591.91;;;35.04;22.81
55685;BME280;41883;49.544;8.646;2022-08-02T13:12:59;100590.94;;;34.77;22.44
55685;BME280;41883;49.544;8.646;2022-08-02T13:15:27;100598.78;;;34.61;22.71
55685;BME280;41883;49.544;8.646;2022-08-02T13:17:53;100594.09;;;34.48;23.08
55685;BME280;41883;49.544;8.646;2022-08-02T13:20:20;100589.09;;;34.28;23.34
55685;BME280;41883;49.544;8.646;2022-08-02T13:22:46;100580.28;;;34.17;23.22
55685;BME280;41883;49.544;8.646;2022-08-02T13:25:13;100580.41;;;33.84;23.95
55685;BME280;41883;49.544;8.646;2022-08-02T13:27:48;100583.59;;;33.63;23.87
55685;BME280;41883;49.544;8.646;2022-08-02T13:30:14;100574.72;;;33.53;23.97
55685;BME280;41883;49.544;8.646;2022-08-02T13:32:40;100576.97;;;33.65;23.80